Fortune Wing — VRHW2 — position and weather

sailwx.info

Track history (hours):
 
Tides and Currents Weather Stations Pressure Air Temp Water Temp Dewpoint Dewpoint Depression Visibility Wind Speed Wind Dir Waves Ship Positions

Fortune Wing

Last reported at 2016-May-09 13:22 UTC. Time now 2016-Jun-26 02:58 UTC.
Position S 29°52' E 031°09'.
Warning: this ship's position is 47 days out of date.

Length 190 m; draft 11.7 m.

Type: Cargo ship. MMSI: 477389500.

Date/timePositionNaut miles runAvg speedWind from/ knotsBaromVisibWave heightAir tempDewpointWater temp
2016-May-09 13:22S 29°52' E 031°09'3 3.8
2016-May-09 12:33S 29°53' E 031°12'1 0.6
2016-May-09 11:33S 29°53' E 031°12'3 2.8
2016-May-09 10:33S 29°51' E 031°09'0 0.4
2016-May-09 09:33S 29°52' E 031°09'1 0.9
2016-May-09 08:33S 29°52' E 031°10'7 6.7
2016-May-09 07:34S 29°56' E 031°16'6 6.3
2016-May-09 06:34S 30°02' E 031°19'1110.7
2016-May-09 05:33S 30°11' E 031°13'1110.7
2016-May-09 04:33S 30°21' E 031°07'1111.0
2016-May-09 03:33S 30°30' E 030°60'  
Track history (hours):
 
Tides and Currents Weather Stations Pressure Air Temp Water Temp Dewpoint Dewpoint Depression Visibility Wind Speed Wind Dir Waves Ship Positions

Fortune Wing

Last reported at 2016-May-09 13:22 UTC. Time now 2016-Jun-26 02:58 UTC.
Position S 29°52' E 031°09'.
Warning: this ship's position is 47 days out of date.

Length 190 m; draft 11.7 m.

Type: Cargo ship. MMSI: 477389500.

Date/timePositionNaut miles runAvg speedWind from/ knotsBaromVisibWave heightAir tempDewpointWater temp
2016-May-09 13:22S 29°52' E 031°09'3 3.8
2016-May-09 12:33S 29°53' E 031°12'1 0.6
2016-May-09 11:33S 29°53' E 031°12'3 2.8
2016-May-09 10:33S 29°51' E 031°09'0 0.4
2016-May-09 09:33S 29°52' E 031°09'1 0.9
2016-May-09 08:33S 29°52' E 031°10'7 6.7
2016-May-09 07:34S 29°56' E 031°16'6 6.3
2016-May-09 06:34S 30°02' E 031°19'1110.7
2016-May-09 05:33S 30°11' E 031°13'1110.7
2016-May-09 04:33S 30°21' E 031°07'1111.0
2016-May-09 03:33S 30°30' E 030°60'  

Dump ship's entire track history